createdAt,value
2023-03-05T00:00:04.627Z,96436.06
2023-03-05T00:02:31.040Z,96440.53
2023-03-05T00:04:57.478Z,96441.91
2023-03-05T00:07:23.846Z,96434.31
2023-03-05T00:09:50.264Z,96433.03
2023-03-05T00:12:16.621Z,96440.44
2023-03-05T00:14:43.033Z,96439.38
2023-03-05T00:17:09.382Z,96449.00
2023-03-05T00:19:35.770Z,96444.66
2023-03-05T00:22:02.165Z,96439.56
2023-03-05T00:24:28.556Z,96438.53
2023-03-05T00:26:54.954Z,96442.38
2023-03-05T00:29:21.365Z,96450.13
2023-03-05T00:31:47.773Z,96444.13
2023-03-05T00:34:14.170Z,96453.00
2023-03-05T00:36:40.526Z,96458.22
2023-03-05T00:39:06.914Z,96451.34
2023-03-05T00:41:33.317Z,96458.59
2023-03-05T00:43:59.698Z,96446.28
2023-03-05T00:46:26.117Z,96452.06
2023-03-05T00:48:52.519Z,96457.25
2023-03-05T00:51:18.895Z,96451.00
2023-03-05T00:53:45.283Z,96446.44
2023-03-05T00:56:11.649Z,96450.69
2023-03-05T00:58:37.991Z,96444.78
2023-03-05T01:01:04.358Z,96449.25
2023-03-05T01:03:30.763Z,96451.56
2023-03-05T01:05:57.121Z,96452.94
2023-03-05T01:08:23.541Z,96456.91
2023-03-05T01:10:49.945Z,96456.91
2023-03-05T01:13:16.304Z,96444.56
2023-03-05T01:15:42.703Z,96449.63
2023-03-05T01:18:09.053Z,96433.97
2023-03-05T01:20:35.436Z,96438.88
2023-03-05T01:23:01.910Z,96437.00
2023-03-05T01:25:28.288Z,96436.00
2023-03-05T01:27:54.674Z,96435.03
2023-03-05T01:30:21.062Z,96430.41
2023-03-05T01:32:47.459Z,96427.16
2023-03-05T01:35:13.861Z,96428.34
2023-03-05T01:37:40.257Z,96431.97
2023-03-05T01:40:06.624Z,96440.75
2023-03-05T01:42:33.013Z,96432.94
2023-03-05T01:44:59.420Z,96430.50
2023-03-05T01:47:25.775Z,96423.84
2023-03-05T01:49:52.159Z,96427.91
2023-03-05T01:52:18.548Z,96431.81
2023-03-05T01:54:44.946Z,96417.50
2023-03-05T01:57:11.350Z,96415.50
2023-03-05T01:59:37.767Z,96415.88
2023-03-05T02:02:04.137Z,96416.78
2023-03-05T02:04:30.517Z,96408.56
2023-03-05T02:06:56.940Z,96411.78
2023-03-05T02:09:23.386Z,96407.81
2023-03-05T02:11:49.797Z,96397.88
2023-03-05T02:14:16.181Z,96396.72
2023-03-05T02:16:42.605Z,96400.13
2023-03-05T02:19:09.043Z,96398.78
2023-03-05T02:21:35.408Z,96393.88
2023-03-05T02:24:01.793Z,96389.16
2023-03-05T02:26:28.140Z,96396.91
2023-03-05T02:28:54.563Z,96387.03
2023-03-05T02:31:21.024Z,96399.94
2023-03-05T02:33:47.416Z,96391.28
2023-03-05T02:36:13.829Z,96388.63
2023-03-05T02:38:40.230Z,96388.81
2023-03-05T02:41:06.604Z,96386.06
2023-03-05T02:43:33.016Z,96387.91
2023-03-05T02:45:59.420Z,96389.44
2023-03-05T02:48:25.775Z,96384.19
2023-03-05T02:50:52.125Z,96390.78
2023-03-05T02:53:18.468Z,96377.22
2023-03-05T02:55:44.852Z,96379.78
2023-03-05T02:58:11.206Z,96379.28
2023-03-05T03:00:37.570Z,96380.78
2023-03-05T03:03:03.972Z,96384.44
2023-03-05T03:05:30.362Z,96380.72
2023-03-05T03:07:56.742Z,96392.38
2023-03-05T03:10:23.096Z,96389.34
2023-03-05T03:12:49.494Z,96387.28
2023-03-05T03:15:15.846Z,96386.56
2023-03-05T03:17:42.231Z,96394.69
2023-03-05T03:20:08.590Z,96384.00
2023-03-05T03:22:34.936Z,96387.75
2023-03-05T03:25:01.288Z,96384.88
2023-03-05T03:27:27.682Z,96382.13
2023-03-05T03:29:54.068Z,96383.72
2023-03-05T03:32:20.498Z,96390.94
2023-03-05T03:34:46.902Z,96378.13
2023-03-05T03:37:13.267Z,96381.50
2023-03-05T03:39:39.642Z,96379.38
2023-03-05T03:42:06.022Z,96373.91
2023-03-05T03:44:32.418Z,96374.00
2023-03-05T03:46:58.820Z,96377.19
2023-03-05T03:49:25.195Z,96372.38
2023-03-05T03:51:51.536Z,96372.34
2023-03-05T03:54:17.895Z,96360.63
2023-03-05T03:56:44.255Z,96364.91
2023-03-05T03:59:10.646Z,96369.44
2023-03-05T04:01:37.041Z,96365.91
2023-03-05T04:04:03.489Z,96371.41
2023-03-05T04:06:29.863Z,96367.16
2023-03-05T04:08:56.258Z,96374.88
2023-03-05T04:11:22.626Z,96368.97
2023-03-05T04:13:48.978Z,96366.94
2023-03-05T04:16:15.368Z,96368.25
2023-03-05T04:18:41.773Z,96367.59
2023-03-05T04:21:08.117Z,96370.25
2023-03-05T04:23:34.467Z,96369.13
2023-03-05T04:26:00.823Z,96367.19
2023-03-05T04:28:27.177Z,96377.00
2023-03-05T04:30:53.588Z,96377.19
2023-03-05T04:33:19.952Z,96373.44
2023-03-05T04:35:46.377Z,96367.31
2023-03-05T04:38:12.750Z,96365.94
2023-03-05T04:40:39.132Z,96358.78
2023-03-05T04:43:05.498Z,96359.75
2023-03-05T04:45:31.918Z,96361.44
2023-03-05T04:47:58.287Z,96362.69
2023-03-05T04:50:24.665Z,96358.59
2023-03-05T04:52:51.029Z,96351.72
2023-03-05T04:55:17.383Z,96356.34
2023-03-05T04:57:43.760Z,96361.50
2023-03-05T05:00:10.166Z,96358.91
2023-03-05T05:02:36.576Z,96357.03
2023-03-05T05:05:02.974Z,96345.84
2023-03-05T05:07:29.320Z,96346.66
2023-03-05T05:09:55.704Z,96344.75
2023-03-05T05:12:22.056Z,96347.59
2023-03-05T05:14:48.447Z,96350.13
2023-03-05T05:17:14.842Z,96352.06
2023-03-05T05:19:41.226Z,96352.69
2023-03-05T05:22:07.653Z,96355.72
2023-03-05T05:24:34.023Z,96361.44
2023-03-05T05:27:00.423Z,96353.88
2023-03-05T05:29:26.828Z,96354.53
2023-03-05T05:31:53.254Z,96350.31
2023-03-05T05:34:19.683Z,96347.47
2023-03-05T05:36:46.089Z,96353.59
2023-03-05T05:39:12.501Z,96342.09
2023-03-05T05:41:38.889Z,96342.44
2023-03-05T05:44:05.242Z,96344.25
2023-03-05T05:46:31.754Z,96333.56
2023-03-05T05:48:58.193Z,96338.50
2023-03-05T05:51:24.591Z,96340.34
2023-03-05T05:53:50.987Z,96341.97
2023-03-05T05:56:17.342Z,96343.91
2023-03-05T05:58:43.739Z,96341.16
2023-03-05T06:01:10.099Z,96337.28
2023-03-05T06:03:36.439Z,96339.78
2023-03-05T06:06:02.823Z,96342.78
2023-03-05T06:08:29.186Z,96332.78
2023-03-05T06:10:55.535Z,96331.13
2023-03-05T06:13:21.882Z,96337.31
2023-03-05T06:15:48.332Z,96339.16
2023-03-05T06:18:14.729Z,96338.06
2023-03-05T06:20:41.083Z,96339.13
2023-03-05T06:23:07.434Z,96341.03
2023-03-05T06:25:33.789Z,96335.88
2023-03-05T06:28:00.173Z,96346.06
2023-03-05T06:30:26.552Z,96346.47
2023-03-05T06:32:52.967Z,96336.19
2023-03-05T06:35:19.365Z,96341.44
2023-03-05T06:37:45.734Z,96339.47
2023-03-05T06:40:12.175Z,96342.63
2023-03-05T06:42:38.534Z,96344.94
2023-03-05T06:45:04.934Z,96339.00
2023-03-05T06:47:31.385Z,96339.97
2023-03-05T06:49:57.757Z,96349.06
2023-03-05T06:52:24.113Z,96346.75
2023-03-05T06:54:50.480Z,96351.66
2023-03-05T06:57:16.862Z,96352.09
2023-03-05T06:59:43.258Z,96351.56
2023-03-05T07:02:09.621Z,96341.94
2023-03-05T07:04:35.967Z,96342.75
2023-03-05T07:07:02.366Z,96342.41
2023-03-05T07:09:28.770Z,96338.94
2023-03-05T07:11:55.174Z,96333.44
2023-03-05T07:14:21.565Z,96343.56
2023-03-05T07:16:47.934Z,96346.50
2023-03-05T07:19:14.338Z,96337.25
2023-03-05T07:21:40.703Z,96341.38
2023-03-05T07:24:07.068Z,96347.34
2023-03-05T07:26:33.564Z,96348.03
2023-03-05T07:29:00.006Z,96346.25
2023-03-05T07:31:26.414Z,96351.47
2023-03-05T07:33:52.842Z,96349.06
2023-03-05T07:36:19.192Z,96344.75
2023-03-05T07:38:45.557Z,96344.25
2023-03-05T07:41:11.977Z,96334.03
2023-03-05T07:43:38.328Z,96338.59
2023-03-05T07:46:04.995Z,96343.44
2023-03-05T07:48:31.514Z,96329.44
2023-03-05T07:50:57.913Z,96325.78
2023-03-05T07:53:24.258Z,96331.16
2023-03-05T07:55:50.616Z,96331.00
2023-03-05T07:58:16.959Z,96321.69
2023-03-05T08:00:43.320Z,96326.75
2023-03-05T08:03:09.659Z,96317.03
2023-03-05T08:05:36.013Z,96317.25
2023-03-05T08:08:02.355Z,96328.91
2023-03-05T08:10:28.725Z,96322.94
2023-03-05T08:12:55.200Z,96317.97
2023-03-05T08:15:21.546Z,96319.28
2023-03-05T08:17:47.931Z,96322.03
2023-03-05T08:20:14.360Z,96326.03
2023-03-05T08:22:40.810Z,96324.72
2023-03-05T08:25:07.163Z,96313.88
2023-03-05T08:27:33.511Z,96318.56
2023-03-05T08:29:59.895Z,96311.44
2023-03-05T08:32:26.302Z,96305.31
2023-03-05T08:34:52.684Z,96311.00
2023-03-05T08:37:19.080Z,96312.47
2023-03-05T08:39:45.481Z,96319.81
2023-03-05T08:42:11.877Z,96317.94
2023-03-05T08:44:38.283Z,96318.75
2023-03-05T08:47:04.688Z,96319.28
2023-03-05T08:49:31.083Z,96313.19
2023-03-05T08:51:57.447Z,96320.19
2023-03-05T08:54:23.838Z,96313.00
2023-03-05T08:56:50.238Z,96316.00
2023-03-05T08:59:16.584Z,96314.47
2023-03-05T09:01:43.000Z,96317.81
2023-03-05T09:04:09.460Z,96311.19
2023-03-05T09:06:35.906Z,96317.59
2023-03-05T09:09:02.322Z,96312.34
2023-03-05T09:11:28.724Z,96301.50
2023-03-05T09:13:55.147Z,96300.31
2023-03-05T09:16:21.555Z,96301.34
2023-03-05T09:18:47.967Z,96293.75
2023-03-05T09:21:14.352Z,96298.69
2023-03-05T09:23:40.756Z,96290.19
2023-03-05T09:26:07.157Z,96293.31
2023-03-05T09:28:33.548Z,96290.09
2023-03-05T09:30:59.957Z,96283.69
2023-03-05T09:33:26.320Z,96286.19
2023-03-05T09:35:52.688Z,96286.06
2023-03-05T09:38:19.098Z,96280.50
2023-03-05T09:40:45.498Z,96273.22
2023-03-05T09:43:11.915Z,96274.91
2023-03-05T09:45:38.455Z,96274.44
2023-03-05T09:48:04.861Z,96278.09
2023-03-05T09:50:31.263Z,96268.59
2023-03-05T09:52:57.671Z,96266.75
2023-03-05T09:55:24.039Z,96266.56
2023-03-05T09:57:50.436Z,96271.94
2023-03-05T10:00:16.810Z,96272.38
2023-03-05T10:02:44.299Z,96264.13
2023-03-05T10:05:10.672Z,96258.41
2023-03-05T10:07:37.082Z,96253.38
2023-03-05T10:10:03.461Z,96256.88
2023-03-05T10:12:29.822Z,96257.00
2023-03-05T10:14:56.184Z,96249.84
2023-03-05T10:17:22.579Z,96246.31
2023-03-05T10:19:48.940Z,96249.63
2023-03-05T10:22:15.338Z,96241.09
2023-03-05T10:24:41.830Z,96237.09
2023-03-05T10:27:08.214Z,96232.13
2023-03-05T10:29:34.591Z,96237.91
2023-03-05T10:32:01.007Z,96233.69
2023-03-05T10:34:27.472Z,96232.50
2023-03-05T10:36:53.835Z,96229.53
2023-03-05T10:39:20.234Z,96221.44
2023-03-05T10:41:46.630Z,96218.34
2023-03-05T10:44:13.008Z,96210.72
2023-03-05T10:46:39.397Z,96209.53
2023-03-05T10:49:05.743Z,96209.47
2023-03-05T10:51:32.148Z,96206.66
2023-03-05T10:53:58.498Z,96200.88
2023-03-05T10:56:24.895Z,96194.72
2023-03-05T10:58:51.260Z,96198.31
2023-03-05T11:01:17.724Z,96195.50
2023-03-05T11:03:44.082Z,96183.81
2023-03-05T11:06:10.437Z,96188.72
2023-03-05T11:08:36.880Z,96184.47
2023-03-05T11:11:04.060Z,96175.81
2023-03-05T11:13:30.574Z,96176.16
2023-03-05T11:15:57.062Z,96174.50
2023-03-05T11:18:23.632Z,96174.38
2023-03-05T11:20:49.988Z,96168.91
2023-03-05T11:23:16.358Z,96163.13
2023-03-05T11:25:42.703Z,96158.03
2023-03-05T11:28:09.093Z,96154.16
2023-03-05T11:30:35.551Z,96149.06
2023-03-05T11:33:02.041Z,96150.53
2023-03-05T11:35:28.427Z,96144.81
2023-03-05T11:37:54.860Z,96152.44
2023-03-05T11:40:21.242Z,96145.25
2023-03-05T11:42:47.652Z,96137.22
2023-03-05T11:45:14.021Z,96135.63
2023-03-05T11:47:40.409Z,96124.09
2023-03-05T11:50:06.807Z,96119.22
2023-03-05T11:52:33.197Z,96116.28
2023-03-05T11:54:59.606Z,96116.53
2023-03-05T11:57:25.976Z,96107.06
2023-03-05T11:59:52.384Z,96097.41
2023-03-05T12:02:19.575Z,96094.91
2023-03-05T12:04:46.196Z,96100.13
2023-03-05T12:07:12.591Z,96084.88
2023-03-05T12:09:39.494Z,96097.50
2023-03-05T12:12:05.918Z,96080.47
2023-03-05T12:14:32.259Z,96076.78
2023-03-05T12:16:58.650Z,96078.47
2023-03-05T12:19:25.187Z,96057.34
2023-03-05T12:21:51.668Z,96063.41
2023-03-05T12:24:18.020Z,96063.41
2023-03-05T12:26:44.391Z,96059.22
2023-03-05T12:29:10.811Z,96056.75
2023-03-05T12:31:37.277Z,96054.97
2023-03-05T12:34:03.687Z,96047.63
2023-03-05T12:36:30.099Z,96048.06
2023-03-05T12:38:56.500Z,96043.53
2023-03-05T12:41:22.919Z,96034.94
2023-03-05T12:43:49.299Z,96024.72
2023-03-05T12:46:15.710Z,96024.66
2023-03-05T12:48:42.236Z,96021.84
2023-03-05T12:51:08.615Z,96014.81
2023-03-05T12:53:34.998Z,96006.41
2023-03-05T12:56:01.400Z,96016.41
2023-03-05T12:58:27.813Z,96012.09
2023-03-05T13:00:54.223Z,96003.25
2023-03-05T13:03:20.647Z,96005.97
2023-03-05T13:05:47.131Z,96002.19
2023-03-05T13:08:15.958Z,95998.78
2023-03-05T13:10:42.601Z,95995.88
2023-03-05T13:13:08.993Z,95987.69
2023-03-05T13:15:35.403Z,95990.22
2023-03-05T13:18:01.815Z,95980.13
2023-03-05T13:20:28.215Z,95976.56
2023-03-05T13:22:54.597Z,95980.94
2023-03-05T13:25:20.992Z,95971.22
2023-03-05T13:27:47.364Z,95973.97
2023-03-05T13:30:13.727Z,95967.34
2023-03-05T13:32:40.200Z,95970.69
2023-03-05T13:35:06.572Z,95961.06
2023-03-05T13:37:32.931Z,95967.91
2023-03-05T13:39:59.317Z,95964.56
2023-03-05T13:42:25.725Z,95957.28
2023-03-05T13:44:52.086Z,95958.56
2023-03-05T13:47:18.941Z,95954.50
2023-03-05T13:49:45.349Z,95949.94
2023-03-05T13:52:11.727Z,95945.81
2023-03-05T13:54:38.127Z,95947.66
2023-03-05T13:57:04.486Z,95935.03
2023-03-05T13:59:30.896Z,95935.91
2023-03-05T14:01:57.299Z,95929.91
2023-03-05T14:04:23.742Z,95926.34
2023-03-05T14:06:50.201Z,95918.97
2023-03-05T14:09:16.608Z,95918.69
2023-03-05T14:11:42.999Z,95918.47
2023-03-05T14:14:09.378Z,95911.53
2023-03-05T14:16:35.796Z,95909.28
2023-03-05T14:19:02.188Z,95902.16
2023-03-05T14:21:28.554Z,95901.78
2023-03-05T14:23:55.048Z,95897.56
2023-03-05T14:26:21.479Z,95896.97
2023-03-05T14:28:47.832Z,95899.19
2023-03-05T14:31:14.237Z,95887.97
2023-03-05T14:33:40.595Z,95884.16
2023-03-05T14:36:06.985Z,95885.00
2023-03-05T14:38:33.339Z,95876.31
2023-03-05T14:40:59.730Z,95873.22
2023-03-05T14:43:26.152Z,95867.94
2023-03-05T14:45:52.592Z,95863.50
2023-03-05T14:48:19.120Z,95866.69
2023-03-05T14:50:45.535Z,95864.44
2023-03-05T14:53:11.945Z,95858.59
2023-03-05T14:55:38.470Z,95846.94
2023-03-05T14:58:04.937Z,95855.41
2023-03-05T15:00:31.351Z,95847.50
2023-03-05T15:02:57.910Z,95849.06
2023-03-05T15:05:24.416Z,95839.06
2023-03-05T15:07:50.808Z,95836.41
2023-03-05T15:10:17.181Z,95834.78
2023-03-05T15:12:43.530Z,95820.69
2023-03-05T15:15:09.956Z,95827.50
2023-03-05T15:17:36.376Z,95820.69
2023-03-05T15:20:02.790Z,95812.94
2023-03-05T15:22:29.226Z,95815.78
2023-03-05T15:24:55.628Z,95809.75
2023-03-05T15:27:21.978Z,95808.31
2023-03-05T15:29:48.355Z,95804.97
2023-03-05T15:32:14.854Z,95800.16
2023-03-05T15:34:41.271Z,95794.53
2023-03-05T15:37:07.636Z,95799.66
2023-03-05T15:39:34.041Z,95785.47
2023-03-05T15:42:00.404Z,95786.69
2023-03-05T15:44:26.762Z,95783.06
2023-03-05T15:46:53.150Z,95780.56
2023-03-05T15:49:19.509Z,95774.22
2023-03-05T15:51:45.868Z,95772.56
2023-03-05T15:54:12.315Z,95775.16
2023-03-05T15:56:38.706Z,95766.09
2023-03-05T15:59:05.068Z,95768.38
2023-03-05T16:01:31.487Z,95769.44
2023-03-05T16:03:57.942Z,95767.88
2023-03-05T16:06:24.301Z,95762.75
2023-03-05T16:08:50.729Z,95761.09
2023-03-05T16:11:17.154Z,95760.22
2023-03-05T16:13:43.540Z,95766.31
2023-03-05T16:16:09.996Z,95759.47
2023-03-05T16:18:36.364Z,95760.50
2023-03-05T16:21:02.729Z,95759.16
2023-03-05T16:23:29.178Z,95750.47
2023-03-05T16:25:55.569Z,95753.78
2023-03-05T16:28:21.979Z,95757.91
2023-03-05T16:30:48.469Z,95759.31
2023-03-05T16:33:14.909Z,95768.88
2023-03-05T16:35:41.362Z,95751.38
2023-03-05T16:38:07.762Z,95760.56
2023-03-05T16:41:05.364Z,95761.34
2023-03-05T16:43:20.535Z,95754.59
2023-03-05T16:45:46.952Z,95752.34
2023-03-05T16:48:13.346Z,95744.84
2023-03-05T16:50:39.712Z,95747.91
2023-03-05T16:53:06.067Z,95752.66
2023-03-05T16:55:32.431Z,95750.91
2023-03-05T16:57:58.845Z,95751.16
2023-03-05T17:00:25.230Z,95748.50
2023-03-05T17:02:51.621Z,95747.84
2023-03-05T17:05:18.036Z,95750.03
2023-03-05T17:07:44.396Z,95750.03
2023-03-05T17:10:10.743Z,95751.66
2023-03-05T17:12:37.126Z,95751.97
2023-03-05T17:15:03.567Z,95750.59
2023-03-05T17:17:29.932Z,95758.78
2023-03-05T17:19:56.283Z,95752.31
2023-03-05T17:22:22.688Z,95757.53
2023-03-05T17:24:49.043Z,95753.56
2023-03-05T17:27:15.388Z,95756.38
2023-03-05T17:29:41.810Z,95752.75
2023-03-05T17:32:08.234Z,95753.00
2023-03-05T17:34:36.756Z,95750.97
2023-03-05T17:37:03.410Z,95757.47
2023-03-05T17:39:29.770Z,95763.81
2023-03-05T17:41:56.124Z,95757.03
2023-03-05T17:44:22.550Z,95754.50
2023-03-05T17:46:48.953Z,95760.16
2023-03-05T17:49:15.327Z,95760.16
2023-03-05T17:51:41.679Z,95746.63
2023-03-05T17:54:08.028Z,95753.53
2023-03-05T17:56:34.419Z,95754.56
2023-03-05T17:59:00.847Z,95761.88
2023-03-05T18:01:27.329Z,95760.25
2023-03-05T18:03:53.784Z,95761.44
2023-03-05T18:06:20.144Z,95774.72
2023-03-05T18:08:46.501Z,95769.09
2023-03-05T18:11:12.884Z,95769.25
2023-03-05T18:13:39.285Z,95766.50
2023-03-05T18:16:05.693Z,95770.66
2023-03-05T18:18:32.075Z,95766.63
2023-03-05T18:20:58.462Z,95769.50
2023-03-05T18:23:24.873Z,95776.94
2023-03-05T18:25:51.280Z,95768.47
2023-03-05T18:28:17.673Z,95759.25
2023-03-05T18:30:44.068Z,95762.00
2023-03-05T18:33:10.459Z,95762.00
2023-03-05T18:35:36.899Z,95755.78
2023-03-05T18:38:03.360Z,95761.44
2023-03-05T18:40:29.796Z,95759.13
2023-03-05T18:42:56.161Z,95764.22
2023-03-05T18:45:22.515Z,95760.22
2023-03-05T18:47:48.868Z,95758.25
2023-03-05T18:50:15.248Z,95760.09
2023-03-05T18:52:41.655Z,95755.78
2023-03-05T18:55:08.056Z,95759.84
2023-03-05T18:57:34.428Z,95750.72
2023-03-05T19:00:00.790Z,95745.69
2023-03-05T19:02:27.130Z,95742.72
2023-03-05T19:04:53.512Z,95746.22
2023-03-05T19:07:19.938Z,95747.06
2023-03-05T19:09:46.316Z,95746.50
2023-03-05T19:12:12.661Z,95737.34
2023-03-05T19:14:39.062Z,95732.56
2023-03-05T19:17:05.456Z,95739.97
2023-03-05T19:19:31.848Z,95732.34
2023-03-05T19:21:58.243Z,95732.47
2023-03-05T19:24:24.616Z,95739.25
2023-03-05T19:26:50.991Z,95732.13
2023-03-05T19:29:17.401Z,95737.84
2023-03-05T19:31:43.756Z,95730.69
2023-03-05T19:34:10.393Z,95724.59
2023-03-05T19:36:36.790Z,95722.38
2023-03-05T19:39:03.195Z,95722.25
2023-03-05T19:41:29.600Z,95721.22
2023-03-05T19:43:56.203Z,95727.41
2023-03-05T19:46:22.616Z,95726.03
2023-03-05T19:48:49.005Z,95729.78
2023-03-05T19:51:15.384Z,95726.31
2023-03-05T19:53:41.810Z,95717.81
2023-03-05T19:56:08.167Z,95723.88
2023-03-05T19:58:34.518Z,95728.88
2023-03-05T20:01:00.908Z,95725.91
2023-03-05T20:03:27.475Z,95722.31
2023-03-05T20:05:53.887Z,95724.16
2023-03-05T20:08:20.284Z,95720.75
2023-03-05T20:10:46.673Z,95727.50
2023-03-05T20:13:13.028Z,95724.13
2023-03-05T20:15:39.423Z,95725.66
2023-03-05T20:18:05.786Z,95720.63
2023-03-05T20:20:32.255Z,95720.59
2023-03-05T20:22:58.677Z,95722.91
2023-03-05T20:25:25.101Z,95724.94
2023-03-05T20:27:51.524Z,95720.63
2023-03-05T20:30:17.885Z,95716.97
2023-03-05T20:32:44.276Z,95711.09
2023-03-05T20:35:10.624Z,95702.06
2023-03-05T20:37:36.988Z,95699.44
2023-03-05T20:40:03.372Z,95699.56
2023-03-05T20:42:29.853Z,95698.31
2023-03-05T20:44:56.282Z,95689.66
2023-03-05T20:47:22.665Z,95705.31
2023-03-05T20:49:49.053Z,95700.75
2023-03-05T20:52:15.442Z,95702.50
2023-03-05T20:54:41.823Z,95702.28
2023-03-05T20:57:08.320Z,95696.13
2023-03-05T20:59:34.686Z,95699.84
2023-03-05T21:02:01.070Z,95689.72
2023-03-05T21:04:27.450Z,95694.81
2023-03-05T21:06:53.800Z,95693.00
2023-03-05T21:09:20.185Z,95692.66
2023-03-05T21:11:46.586Z,95688.03
2023-03-05T21:14:12.945Z,95683.84
2023-03-05T21:16:39.384Z,95684.88
2023-03-05T21:19:05.828Z,95682.13
2023-03-05T21:21:32.229Z,95676.06
2023-03-05T21:23:58.639Z,95673.91
2023-03-05T21:26:24.996Z,95673.63
2023-03-05T21:28:51.381Z,95673.59
2023-03-05T21:31:18.015Z,95666.47
2023-03-05T21:33:44.443Z,95667.66
2023-03-05T21:36:10.851Z,95661.78
2023-03-05T21:38:37.255Z,95661.63
2023-03-05T21:41:03.618Z,95662.22
2023-03-05T21:43:29.967Z,95657.66
2023-03-05T21:45:56.427Z,95651.84
2023-03-05T21:48:22.796Z,95658.91
2023-03-05T21:50:49.224Z,95662.84
2023-03-05T21:53:15.601Z,95655.25
2023-03-05T21:55:41.955Z,95658.06
2023-03-05T21:58:08.304Z,95661.28
2023-03-05T22:00:34.690Z,95655.34
2023-03-05T22:03:01.094Z,95653.47
2023-03-05T22:05:27.455Z,95648.38
2023-03-05T22:07:53.828Z,95648.19
2023-03-05T22:10:20.199Z,95647.38
2023-03-05T22:12:46.552Z,95647.00
2023-03-05T22:15:12.937Z,95639.81
2023-03-05T22:17:39.305Z,95635.81
2023-03-05T22:20:05.727Z,95633.66
2023-03-05T22:22:32.108Z,95629.47
2023-03-05T22:24:58.458Z,95632.69
2023-03-05T22:27:24.813Z,95623.09
2023-03-05T22:29:51.162Z,95633.25
2023-03-05T22:32:17.573Z,95637.91
2023-03-05T22:34:43.991Z,95628.66
2023-03-05T22:37:10.385Z,95621.31
2023-03-05T22:39:36.751Z,95629.25
2023-03-05T22:42:03.105Z,95626.41
2023-03-05T22:44:29.495Z,95626.06
2023-03-05T22:46:55.900Z,95627.72
2023-03-05T22:49:22.280Z,95625.22
2023-03-05T22:51:48.668Z,95629.38
2023-03-05T22:54:15.014Z,95624.84
2023-03-05T22:56:41.355Z,95625.66
2023-03-05T22:59:07.728Z,95619.66
2023-03-05T23:01:34.095Z,95614.13
2023-03-05T23:04:00.481Z,95618.19
2023-03-05T23:06:26.904Z,95616.16
2023-03-05T23:08:53.312Z,95618.00
2023-03-05T23:11:19.674Z,95613.91
2023-03-05T23:13:46.076Z,95615.47
2023-03-05T23:16:12.483Z,95611.91
2023-03-05T23:18:38.865Z,95609.13
2023-03-05T23:21:05.215Z,95605.09
2023-03-05T23:23:31.560Z,95605.94
2023-03-05T23:25:58.021Z,95601.97
2023-03-05T23:28:24.439Z,95614.56
2023-03-05T23:30:50.860Z,95606.50
2023-03-05T23:33:17.239Z,95605.19
2023-03-05T23:35:43.718Z,95611.56
2023-03-05T23:38:10.099Z,95606.81
2023-03-05T23:40:36.511Z,95604.34
2023-03-05T23:43:02.882Z,95609.88
2023-03-05T23:45:29.235Z,95604.28
2023-03-05T23:47:55.640Z,95609.56
2023-03-05T23:50:22.004Z,95601.66
2023-03-05T23:52:48.378Z,95601.03
2023-03-05T23:55:14.722Z,95604.81
2023-03-05T23:57:41.109Z,95607.19
